Time;durP1;ratioP1;P1;durP2;ratioP2;P2;SDS_P1;SDS_P2;PMS_P1;PMS_P2;Temp;Humidity;BMP_temperature;BMP_pressure;BME280_temperature;BME280_humidity;BME280_pressure;Samples;Min_cycle;Max_cycle;Signal;HPM_P1;HPM_P2
2024/04/05 00:00:21;;;;;;;1.80;1.00;;;15.40;55.80;;;;;;5059422;28;20242;-55
2024/04/05 00:02:48;;;;;;;2.23;1.20;;;15.40;55.80;;;;;;5063920;28;20293;-55
2024/04/05 00:05:14;;;;;;;1.90;0.97;;;15.40;55.90;;;;;;5062158;28;20217;-56
2024/04/05 00:07:41;;;;;;;0.70;0.70;;;15.40;55.90;;;;;;5058481;28;20212;-55
2024/04/05 00:10:08;;;;;;;1.30;0.97;;;15.40;55.80;;;;;;5051914;28;20241;-55
2024/04/05 00:12:35;;;;;;;1.43;1.03;;;15.40;55.80;;;;;;5062527;28;20255;-55
2024/04/05 00:15:01;;;;;;;1.60;0.90;;;15.40;55.90;;;;;;5064084;28;20221;-55
2024/04/05 00:17:29;;;;;;;1.37;1.00;;;15.40;55.80;;;;;;5064027;28;20276;-55
2024/04/05 00:19:56;;;;;;;1.27;0.87;;;15.40;55.70;;;;;;5055988;28;20232;-55
2024/04/05 00:22:24;;;;;;;1.13;0.90;;;15.40;55.70;;;;;;5057451;28;20649;-55
2024/04/05 00:24:52;;;;;;;1.23;0.90;;;15.40;55.70;;;;;;5060337;28;20228;-55
2024/04/05 00:27:19;;;;;;;0.97;0.90;;;15.40;56.30;;;;;;5062928;28;20201;-55
2024/04/05 00:29:45;;;;;;;0.80;0.80;;;15.40;55.70;;;;;;5065267;28;20209;-55
2024/04/05 00:32:12;;;;;;;1.23;0.87;;;15.40;55.70;;;;;;5056491;28;20576;-55
2024/04/05 00:34:39;;;;;;;0.90;0.80;;;15.40;55.70;;;;;;5065608;28;20227;-55
2024/04/05 00:37:05;;;;;;;0.87;0.73;;;15.40;55.70;;;;;;5064507;28;20204;-55
2024/04/05 00:39:31;;;;;;;0.93;0.83;;;15.40;55.70;;;;;;5070159;28;20206;-55
2024/04/05 00:41:58;;;;;;;1.33;1.00;;;15.40;56.40;;;;;;5050396;28;20228;-55
2024/04/05 00:44:24;;;;;;;0.83;0.83;;;15.40;55.70;;;;;;5062814;28;20212;-55
2024/04/05 00:46:51;;;;;;;0.80;0.80;;;15.40;55.70;;;;;;5059015;28;20201;-55
2024/04/05 00:49:17;;;;;;;1.00;0.80;;;15.30;55.70;;;;;;5057862;28;20205;-55
2024/04/05 00:51:45;;;;;;;2.00;0.90;;;15.40;55.70;;;;;;5062131;28;20228;-55
2024/04/05 00:54:11;;;;;;;1.50;0.60;;;15.30;55.70;;;;;;5061602;28;20201;-55
2024/04/05 00:56:38;;;;;;;0.93;0.87;;;15.30;55.70;;;;;;5050292;28;20216;-55
2024/04/05 00:59:04;;;;;;;1.17;0.77;;;15.30;55.60;;;;;;5068880;28;20296;-55
2024/04/05 01:01:32;;;;;;;1.13;0.83;;;15.30;56.40;;;;;;5056230;28;20320;-55
2024/04/05 01:03:58;;;;;;;1.13;0.87;;;15.30;55.60;;;;;;5058121;28;20209;-55
2024/04/05 01:06:25;;;;;;;0.80;0.80;;;15.30;55.60;;;;;;5059007;28;20220;-55
2024/04/05 01:08:52;;;;;;;1.80;0.90;;;15.40;55.60;;;;;;5064033;28;20578;-55
2024/04/05 01:11:19;;;;;;;1.33;0.90;;;15.30;55.60;;;;;;5053467;28;20232;-55
2024/04/05 01:13:47;;;;;;;1.30;0.90;;;15.30;55.60;;;;;;5069355;28;20238;-55
2024/04/05 01:16:14;;;;;;;0.80;0.80;;;15.30;55.60;;;;;;5058055;28;20670;-55
2024/04/05 01:18:42;;;;;;;0.87;0.80;;;15.30;55.60;;;;;;5060706;28;20573;-55
2024/04/05 01:21:09;;;;;;;0.80;0.70;;;15.30;55.60;;;;;;5049815;28;20235;-55
2024/04/05 01:23:40;;;;;;;0.70;0.70;;;15.30;55.60;;;;;;5056027;28;20208;-56
2024/04/05 01:26:07;;;;;;;1.20;0.90;;;15.30;55.60;;;;;;5052452;28;20216;-55
2024/04/05 01:28:33;;;;;;;1.30;1.00;;;15.30;55.60;;;;;;5060786;28;20215;-55
2024/04/05 01:30:59;;;;;;;1.10;0.80;;;15.30;55.60;;;;;;5057921;28;20213;-55
2024/04/05 01:33:25;;;;;;;0.97;0.97;;;15.30;55.60;;;;;;5056520;28;20201;-55
2024/04/05 01:35:52;;;;;;;0.80;0.80;;;15.30;55.50;;;;;;5053366;28;20797;-55
2024/04/05 01:38:18;;;;;;;0.80;0.80;;;15.30;55.50;;;;;;5057214;28;20202;-55
2024/04/05 01:40:46;;;;;;;0.80;0.80;;;15.30;55.60;;;;;;5047122;28;20234;-55
2024/04/05 01:43:12;;;;;;;1.13;0.80;;;15.30;55.50;;;;;;5062188;28;20221;-55
2024/04/05 01:45:39;;;;;;;0.67;0.67;;;15.30;55.50;;;;;;5061981;28;20204;-56
2024/04/05 01:48:05;;;;;;;1.40;0.73;;;15.30;55.50;;;;;;5057161;28;20696;-55
2024/04/05 01:50:32;;;;;;;1.40;0.80;;;15.30;55.50;;;;;;5056590;28;20282;-56
2024/04/05 01:52:58;;;;;;;1.60;1.07;;;15.30;55.50;;;;;;5055671;28;20615;-55
2024/04/05 01:55:25;;;;;;;0.80;0.73;;;15.30;55.50;;;;;;5051827;28;20259;-55
2024/04/05 01:57:52;;;;;;;1.23;0.90;;;15.30;55.50;;;;;;5068309;28;20227;-56
2024/04/05 02:00:19;;;;;;;1.53;0.93;;;15.30;55.50;;;;;;5070948;28;20217;-55
2024/04/05 02:02:45;;;;;;;1.20;0.73;;;15.30;55.50;;;;;;5069788;28;20237;-56
2024/04/05 02:05:12;;;;;;;0.80;0.80;;;15.30;55.50;;;;;;5052773;28;20733;-56
2024/04/05 02:07:38;;;;;;;0.60;0.60;;;15.30;55.50;;;;;;5058470;28;20204;-56
2024/04/05 02:10:05;;;;;;;0.90;0.80;;;15.30;55.50;;;;;;5055142;28;20616;-56
2024/04/05 02:12:31;;;;;;;1.00;0.80;;;15.30;55.50;;;;;;5064822;28;20300;-55
2024/04/05 02:14:59;;;;;;;0.93;0.90;;;15.30;55.50;;;;;;5067183;28;20234;-55
2024/04/05 02:17:25;;;;;;;0.90;0.70;;;15.30;55.50;;;;;;5065729;28;20213;-55
2024/04/05 02:19:52;;;;;;;0.90;0.80;;;15.30;55.50;;;;;;5056187;28;20208;-55
2024/04/05 02:22:17;;;;;;;0.80;0.80;;;15.30;55.50;;;;;;5054196;28;20704;-55
2024/04/05 02:24:44;;;;;;;0.67;0.67;;;15.30;55.50;;;;;;5068791;28;20208;-55
2024/04/05 02:27:10;;;;;;;1.17;0.70;;;15.30;55.50;;;;;;5053196;28;20209;-55
2024/04/05 02:29:37;;;;;;;0.80;0.80;;;15.30;55.50;;;;;;5065119;28;20204;-55
2024/04/05 02:32:04;;;;;;;0.73;0.70;;;15.30;55.50;;;;;;5068212;28;20224;-55
2024/04/05 02:34:31;;;;;;;0.60;0.60;;;15.30;55.40;;;;;;5061738;28;20259;-55
2024/04/05 02:36:57;;;;;;;0.60;0.60;;;15.30;55.40;;;;;;5067623;28;20223;-56
2024/04/05 02:39:24;;;;;;;1.13;0.90;;;15.30;55.40;;;;;;5056675;28;20346;-55
2024/04/05 02:41:49;;;;;;;1.03;0.80;;;15.30;55.40;;;;;;5047206;28;20232;-56
2024/04/05 02:44:16;;;;;;;2.23;0.97;;;15.30;55.40;;;;;;5057961;28;20193;-55
2024/04/05 02:46:42;;;;;;;0.67;0.60;;;15.30;55.50;;;;;;5065133;28;20208;-55
2024/04/05 02:49:11;;;;;;;0.57;0.57;;;15.30;55.40;;;;;;5055887;28;20277;-56
2024/04/05 02:51:36;;;;;;;1.00;0.80;;;15.30;55.40;;;;;;5055239;28;20231;-56
2024/04/05 02:54:04;;;;;;;0.70;0.70;;;15.30;55.40;;;;;;5066543;28;20204;-55
2024/04/05 02:56:29;;;;;;;0.87;0.87;;;15.30;55.40;;;;;;5060517;28;20204;-56
2024/04/05 02:58:57;;;;;;;2.00;0.87;;;15.30;55.40;;;;;;5068449;28;20233;-56
2024/04/05 03:01:22;;;;;;;1.20;0.70;;;15.30;55.40;;;;;;5062028;28;20220;-55
2024/04/05 03:03:50;;;;;;;1.30;0.90;;;15.30;55.40;;;;;;5062521;28;20255;-55
2024/04/05 03:06:17;;;;;;;0.77;0.70;;;15.30;55.50;;;;;;5059266;28;20581;-55
2024/04/05 03:08:44;;;;;;;1.10;0.77;;;15.30;55.50;;;;;;5064338;28;20212;-55
2024/04/05 03:11:10;;;;;;;1.00;1.00;;;15.30;55.50;;;;;;5050701;28;20213;-55
2024/04/05 03:13:37;;;;;;;0.80;0.80;;;15.30;55.50;;;;;;5059662;28;20205;-56
2024/04/05 03:16:03;;;;;;;1.17;0.80;;;15.30;55.50;;;;;;5063119;28;20208;-55
2024/04/05 03:18:31;;;;;;;0.80;0.80;;;15.30;55.50;;;;;;5061191;28;20203;-56
2024/04/05 03:20:57;;;;;;;0.70;0.70;;;15.30;55.60;;;;;;5057635;28;20237;-55
2024/04/05 03:23:25;;;;;;;0.70;0.70;;;15.30;55.50;;;;;;5059386;28;20642;-55
2024/04/05 03:25:51;;;;;;;0.80;0.80;;;15.30;55.60;;;;;;5053503;28;20221;-55
2024/04/05 03:28:18;;;;;;;1.10;1.00;;;15.30;55.60;;;;;;5069046;28;20207;-55
2024/04/05 03:30:43;;;;;;;1.10;0.87;;;15.30;55.60;;;;;;5064137;28;20322;-55
2024/04/05 03:33:10;;;;;;;1.80;0.80;;;15.30;55.60;;;;;;5061267;28;20235;-55
2024/04/05 03:35:36;;;;;;;0.70;0.60;;;15.30;55.50;;;;;;5062564;28;20212;-55
2024/04/05 03:38:03;;;;;;;2.90;0.70;;;15.30;55.60;;;;;;5066291;28;20198;-55
2024/04/05 03:40:31;;;;;;;1.63;0.90;;;15.30;55.60;;;;;;5059555;28;20221;-55
2024/04/05 03:42:57;;;;;;;1.70;0.70;;;15.30;55.60;;;;;;5065434;28;20208;-55
2024/04/05 03:45:23;;;;;;;1.13;0.90;;;15.20;55.50;;;;;;5062547;28;20207;-55
2024/04/05 03:47:50;;;;;;;1.27;0.80;;;15.30;55.60;;;;;;5057510;28;20201;-55
2024/04/05 03:50:16;;;;;;;1.10;0.77;;;15.30;55.60;;;;;;5063846;28;20240;-55
2024/04/05 03:52:44;;;;;;;1.10;0.70;;;15.20;55.50;;;;;;5065093;28;20204;-55
2024/04/05 03:55:09;;;;;;;0.73;0.73;;;15.30;55.60;;;;;;5057920;28;20220;-55
2024/04/05 03:57:42;;;;;;;1.57;0.70;;;15.30;55.60;;;;;;5057261;28;20204;-55
2024/04/05 04:00:09;;;;;;;1.73;0.83;;;15.30;55.60;;;;;;5063400;28;20312;-55
2024/04/05 04:02:35;;;;;;;1.30;0.70;;;15.30;55.70;;;;;;5062487;28;20233;-55
2024/04/05 04:05:01;;;;;;;1.00;0.90;;;15.30;55.60;;;;;;5057136;28;20208;-55
2024/04/05 04:07:28;;;;;;;1.00;0.90;;;15.30;55.70;;;;;;5062839;28;20197;-55
2024/04/05 04:09:54;;;;;;;0.97;0.73;;;15.30;55.60;;;;;;5056913;28;20209;-55
2024/04/05 04:12:20;;;;;;;0.80;0.80;;;15.20;55.50;;;;;;5050459;28;20208;-55
2024/04/05 04:14:48;;;;;;;0.77;0.77;;;15.20;55.50;;;;;;5051521;28;20664;-55
2024/04/05 04:17:15;;;;;;;1.67;0.90;;;15.30;55.60;;;;;;5059421;28;20275;-55
2024/04/05 04:19:41;;;;;;;0.80;0.80;;;15.20;55.50;;;;;;5063096;28;20606;-55
2024/04/05 04:22:09;;;;;;;0.80;0.80;;;15.30;55.70;;;;;;5055971;28;20234;-55
2024/04/05 04:24:36;;;;;;;0.80;0.63;;;15.30;55.60;;;;;;5056636;28;20212;-55
2024/04/05 04:27:02;;;;;;;1.40;0.87;;;15.20;55.50;;;;;;5063725;28;20208;-55
2024/04/05 04:29:30;;;;;;;1.57;0.77;;;15.30;55.60;;;;;;5064432;28;20658;-55
2024/04/05 04:31:59;;;;;;;2.13;0.60;;;15.30;55.60;;;;;;5063961;28;20225;-55
2024/04/05 04:34:26;;;;;;;0.70;0.70;;;15.20;55.60;;;;;;5055032;28;20695;-55
2024/04/05 04:36:51;;;;;;;1.50;1.03;;;15.20;55.50;;;;;;5059083;28;20206;-55
2024/04/05 04:39:18;;;;;;;1.30;0.97;;;15.30;55.70;;;;;;5066343;28;20567;-56
2024/04/05 04:41:44;;;;;;;1.10;0.80;;;15.30;55.70;;;;;;5057613;28;20236;-55
2024/04/05 04:44:11;;;;;;;0.70;0.70;;;15.30;55.70;;;;;;5068297;28;20562;-55
2024/04/05 04:46:36;;;;;;;0.97;0.70;;;15.30;55.70;;;;;;5067659;28;20236;-55
2024/04/05 04:49:05;;;;;;;1.10;0.77;;;15.30;55.70;;;;;;5064616;28;20343;-56
2024/04/05 04:51:30;;;;;;;1.40;0.87;;;15.30;55.70;;;;;;5063961;28;20225;-55
2024/04/05 04:53:57;;;;;;;1.17;0.70;;;15.30;55.70;;;;;;5060207;28;20216;-55
2024/04/05 04:56:25;;;;;;;1.20;0.73;;;15.30;55.70;;;;;;5055920;28;20664;-55
2024/04/05 04:58:52;;;;;;;0.60;0.60;;;15.30;55.70;;;;;;5071426;28;20211;-55
2024/04/05 05:01:18;;;;;;;0.80;0.80;;;15.30;55.70;;;;;;5061794;28;20236;-55
2024/04/05 05:03:45;;;;;;;1.00;0.90;;;15.30;55.70;;;;;;5060096;28;20265;-55
2024/04/05 05:06:12;;;;;;;1.30;1.00;;;15.30;55.70;;;;;;5053991;28;20200;-55
2024/04/05 05:08:39;;;;;;;1.73;0.90;;;15.30;55.70;;;;;;5053120;28;20209;-55
2024/04/05 05:11:05;;;;;;;1.33;1.03;;;15.20;55.60;;;;;;5062633;28;20220;-55
2024/04/05 05:13:32;;;;;;;1.17;0.97;;;15.30;55.70;;;;;;5068286;28;20205;-55
2024/04/05 05:15:59;;;;;;;4.03;0.80;;;15.30;55.70;;;;;;5061861;28;20208;-55
2024/04/05 05:18:25;;;;;;;0.70;0.70;;;15.20;55.60;;;;;;5052285;28;20207;-55
2024/04/05 05:20:52;;;;;;;1.20;1.07;;;15.30;55.80;;;;;;5047797;28;20228;-55
2024/04/05 05:23:20;;;;;;;2.33;1.13;;;15.30;55.70;;;;;;5070535;28;20223;-55
2024/04/05 05:25:46;;;;;;;1.20;1.10;;;15.30;55.70;;;;;;5059388;28;20573;-55
2024/04/05 05:28:14;;;;;;;0.83;0.80;;;15.30;55.70;;;;;;5054623;28;20201;-55
2024/04/05 05:30:40;;;;;;;1.50;0.90;;;15.20;55.60;;;;;;5052482;28;20260;-55
2024/04/05 05:33:08;;;;;;;1.83;1.10;;;15.30;55.80;;;;;;5056953;28;20294;-55
2024/04/05 05:35:34;;;;;;;1.67;0.97;;;15.20;55.60;;;;;;5053366;28;20209;-55
2024/04/05 05:38:01;;;;;;;1.83;1.17;;;15.30;55.70;;;;;;5056723;28;20203;-55
2024/04/05 05:40:28;;;;;;;1.00;0.90;;;15.20;55.60;;;;;;5051490;28;20244;-55
2024/04/05 05:42:55;;;;;;;0.80;0.80;;;15.30;55.80;;;;;;5063921;28;20241;-55
2024/04/05 05:45:22;;;;;;;1.13;1.03;;;15.30;55.80;;;;;;5065433;28;20207;-55
2024/04/05 05:47:53;;;;;;;1.00;0.90;;;15.30;55.70;;;;;;5063806;28;20201;-55
2024/04/05 05:50:19;;;;;;;2.27;0.90;;;15.30;55.80;;;;;;5050132;28;20229;-56
2024/04/05 05:52:46;;;;;;;1.70;1.13;;;15.30;55.70;;;;;;5054588;28;20236;-55
2024/04/05 05:55:12;;;;;;;1.00;0.90;;;15.30;55.70;;;;;;5060381;28;20239;-55
2024/04/05 05:57:40;;;;;;;1.57;1.00;;;15.30;55.70;;;;;;5060884;28;20230;-55
2024/04/05 06:00:09;;;;;;;1.50;0.90;;;15.30;55.70;;;;;;5061810;28;20263;-55
2024/04/05 06:02:37;;;;;;;0.93;0.80;;;15.30;55.70;;;;;;5059333;28;20315;-56
2024/04/05 06:05:03;;;;;;;2.27;0.90;;;15.30;55.80;;;;;;5067078;28;20213;-55
2024/04/05 06:07:30;;;;;;;0.70;0.70;;;15.30;56.50;;;;;;5064993;28;20197;-55
2024/04/05 06:09:56;;;;;;;1.17;0.83;;;15.30;56.00;;;;;;5069146;28;20826;-55
2024/04/05 06:12:25;;;;;;;0.70;0.70;;;15.30;56.00;;;;;;5054940;28;20225;-55
2024/04/05 06:14:54;;;;;;;1.13;1.03;;;15.30;56.00;;;;;;5057582;28;20292;-55
2024/04/05 06:17:21;;;;;;;0.97;0.70;;;15.30;56.00;;;;;;5063525;28;20205;-56
2024/04/05 06:19:51;;;;;;;0.80;0.80;;;15.30;56.00;;;;;;5062203;28;20220;-55
2024/04/05 06:22:18;;;;;;;1.23;0.80;;;15.30;56.00;;;;;;5049262;28;20258;-55
2024/04/05 06:24:48;;;;;;;1.47;0.97;;;15.30;56.00;;;;;;5068836;28;20233;-55
2024/04/05 06:27:15;;;;;;;1.77;0.90;;;15.30;55.90;;;;;;5056955;28;20209;-55
2024/04/05 06:29:41;;;;;;;1.33;0.80;;;15.30;55.90;;;;;;5060572;28;20563;-55
2024/04/05 06:32:09;;;;;;;1.87;0.70;;;15.30;55.90;;;;;;5057132;28;20270;-55
2024/04/05 06:34:38;;;;;;;0.97;0.80;;;15.30;55.90;;;;;;5056296;28;20213;-55
2024/04/05 06:37:06;;;;;;;1.13;0.80;;;15.30;55.90;;;;;;5067129;28;20644;-55
2024/04/05 06:39:32;;;;;;;1.20;0.90;;;15.30;55.90;;;;;;5057084;28;20197;-55
2024/04/05 06:41:59;;;;;;;1.87;0.70;;;15.30;55.90;;;;;;5050336;28;20230;-55
2024/04/05 06:44:26;;;;;;;0.70;0.70;;;15.30;55.80;;;;;;5069654;28;20204;-55
2024/04/05 06:46:52;;;;;;;1.33;0.50;;;15.30;55.80;;;;;;5064061;28;20239;-55
2024/04/05 06:49:19;;;;;;;0.80;0.80;;;15.30;55.70;;;;;;5048234;28;20212;-55
2024/04/05 06:51:46;;;;;;;3.57;1.10;;;15.30;55.90;;;;;;5066448;28;20620;-55
2024/04/05 06:54:12;;;;;;;5.10;1.03;;;15.30;55.90;;;;;;5071765;28;20209;-54
2024/04/05 06:56:40;;;;;;;1.13;1.03;;;15.40;56.70;;;;;;5058334;28;20212;-55
2024/04/05 06:59:06;;;;;;;1.80;1.30;;;15.40;56.20;;;;;;5056658;28;20209;-55
2024/04/05 07:01:32;;;;;;;1.70;1.00;;;15.40;56.20;;;;;;5052265;28;20229;-55
2024/04/05 07:03:58;;;;;;;3.37;1.20;;;15.40;56.30;;;;;;5054584;28;20210;-55
2024/04/05 07:06:27;;;;;;;1.40;1.00;;;15.40;56.40;;;;;;5052959;28;20204;-55
2024/04/05 07:08:53;;;;;;;3.13;1.10;;;15.30;56.40;;;;;;5065913;28;20561;-55
2024/04/05 07:11:19;;;;;;;1.00;1.00;;;15.30;56.40;;;;;;5068442;28;20213;-55
2024/04/05 07:13:45;;;;;;;1.70;0.90;;;15.30;56.40;;;;;;5064195;28;20205;-55
2024/04/05 07:16:13;;;;;;;3.40;1.40;;;15.30;56.40;;;;;;5061975;28;20227;-55
2024/04/05 07:18:39;;;;;;;1.20;1.03;;;15.30;56.40;;;;;;5070703;28;20238;-55
2024/04/05 07:21:05;;;;;;;2.63;1.10;;;15.30;56.40;;;;;;5060048;28;20232;-55
2024/04/05 07:23:33;;;;;;;1.57;0.97;;;15.30;56.40;;;;;;5069336;28;20563;-55
2024/04/05 07:26:00;;;;;;;1.93;1.00;;;15.30;56.40;;;;;;5068877;28;20215;-55
2024/04/05 07:28:26;;;;;;;1.63;0.90;;;15.30;56.30;;;;;;5062077;28;20208;-59
2024/04/05 07:30:53;;;;;;;1.83;0.90;;;15.30;56.30;;;;;;5051335;28;20217;-55
2024/04/05 07:33:18;;;;;;;1.87;0.93;;;15.30;56.30;;;;;;5057416;28;20201;-55
2024/04/05 07:35:45;;;;;;;2.93;1.03;;;15.30;56.40;;;;;;5049203;28;20212;-55
2024/04/05 07:38:11;;;;;;;1.47;1.00;;;15.30;56.40;;;;;;5059266;28;20202;-55
2024/04/05 07:40:39;;;;;;;0.80;0.80;;;15.40;56.40;;;;;;5064289;28;20221;-55
2024/04/05 07:43:05;;;;;;;1.73;0.90;;;15.40;56.40;;;;;;5063095;28;20598;-55
2024/04/05 07:45:32;;;;;;;1.43;1.00;;;15.40;56.30;;;;;;5050358;28;20200;-55
2024/04/05 07:47:57;;;;;;;4.80;1.43;;;15.40;56.30;;;;;;5064529;28;20569;-55
2024/04/05 07:50:24;;;;;;;2.00;1.20;;;15.40;56.40;;;;;;5045830;28;20221;-55
2024/04/05 07:52:50;;;;;;;3.83;1.40;;;15.40;56.40;;;;;;5059532;28;20296;-55
2024/04/05 07:55:17;;;;;;;3.00;1.50;;;15.50;56.50;;;;;;5066282;28;20269;-55
2024/04/05 07:57:46;;;;;;;5.73;1.73;;;15.50;56.70;;;;;;5063353;28;20209;-55
2024/04/05 08:00:14;;;;;;;1.97;1.87;;;15.50;56.60;;;;;;5061297;28;20226;-55
2024/04/05 08:02:44;;;;;;;1.70;1.60;;;15.50;56.60;;;;;;5062855;28;20281;-55
2024/04/05 08:05:11;;;;;;;4.33;1.73;;;15.50;56.60;;;;;;5068778;28;20204;-55
2024/04/05 08:07:37;;;;;;;3.83;2.17;;;15.50;56.50;;;;;;5066651;28;20209;-55
2024/04/05 08:10:04;;;;;;;2.87;1.80;;;15.50;56.50;;;;;;5060856;28;20207;-55
2024/04/05 08:12:30;;;;;;;2.57;1.77;;;15.50;56.50;;;;;;5071073;28;20205;-55
2024/04/05 08:14:58;;;;;;;4.63;1.90;;;15.50;56.40;;;;;;5056333;28;20296;-55
2024/04/05 08:17:24;;;;;;;11.93;4.53;;;15.50;56.30;;;;;;5059037;28;20197;-55
2024/04/05 08:19:51;;;;;;;15.47;5.87;;;15.50;56.50;;;;;;5060890;28;20662;-55
2024/04/05 08:22:17;;;;;;;13.40;6.43;;;15.50;57.30;;;;;;5061862;28;20221;-55
2024/04/05 08:24:44;;;;;;;16.60;6.37;;;15.50;56.80;;;;;;5059617;28;20202;-55
2024/04/05 08:27:10;;;;;;;16.83;7.10;;;15.50;56.70;;;;;;5057226;28;20209;-55
2024/04/05 08:29:37;;;;;;;12.53;5.27;;;15.50;56.70;;;;;;5062381;28;20205;-54
2024/04/05 08:32:05;;;;;;;10.00;4.00;;;15.50;57.60;;;;;;5063625;28;20221;-54
2024/04/05 08:34:32;;;;;;;6.87;3.73;;;15.60;58.20;;;;;;5054509;28;20280;-54
2024/04/05 08:36:58;;;;;;;12.63;4.63;;;15.60;58.40;;;;;;5054041;28;20221;-54
2024/04/05 08:39:25;;;;;;;12.47;5.33;;;15.60;58.10;;;;;;5057794;28;20283;-55
2024/04/05 08:41:52;;;;;;;11.40;4.73;;;15.60;57.70;;;;;;5055838;28;20686;-55
2024/04/05 08:44:19;;;;;;;13.73;3.70;;;15.70;57.50;;;;;;5063814;28;20198;-55
2024/04/05 08:46:44;;;;;;;13.10;4.07;;;15.70;57.50;;;;;;5073860;28;20201;-55
2024/04/05 08:49:13;;;;;;;10.77;3.77;;;15.70;57.50;;;;;;5064850;28;20209;-55
2024/04/05 08:51:39;;;;;;;12.17;4.27;;;15.80;58.00;;;;;;5062205;28;20308;-55
2024/04/05 08:54:07;;;;;;;10.13;4.17;;;15.80;57.10;;;;;;5066672;28;20313;-55
2024/04/05 08:56:34;;;;;;;9.80;4.03;;;15.80;57.00;;;;;;5062915;28;20216;-55
2024/04/05 08:59:02;;;;;;;9.67;4.03;;;15.80;56.90;;;;;;5061325;28;20951;-55
2024/04/05 09:01:28;;;;;;;11.27;3.03;;;15.80;56.90;;;;;;5070412;28;20259;-55
2024/04/05 09:03:55;;;;;;;7.73;2.27;;;15.80;58.40;;;;;;5064109;28;20655;-56
2024/04/05 09:06:22;;;;;;;7.50;2.67;;;15.80;59.90;;;;;;5064488;28;20205;-56
2024/04/05 09:08:50;;;;;;;8.23;2.80;;;15.80;59.40;;;;;;5055714;28;20213;-56
2024/04/05 09:11:19;;;;;;;7.43;2.80;;;15.80;59.10;;;;;;5066213;28;20263;-56
2024/04/05 09:13:55;;;;;;;8.10;2.27;;;15.80;58.60;;;;;;5073828;28;20224;-56
2024/04/05 09:16:22;;;;;;;6.77;2.67;;;15.80;58.20;;;;;;5073156;28;20223;-56
2024/04/05 09:18:49;;;;;;;8.87;2.43;;;15.80;58.00;;;;;;5073148;28;20216;-55
2024/04/05 09:21:15;;;;;;;7.20;2.47;;;15.80;57.90;;;;;;5057303;28;20233;-56
2024/04/05 09:23:46;;;;;;;7.80;2.60;;;15.80;57.70;;;;;;5069968;28;20240;-55
2024/04/05 09:26:18;;;;;;;5.83;2.53;;;15.90;57.70;;;;;;5057028;28;20197;-55
2024/04/05 09:28:46;;;;;;;7.37;2.90;;;15.90;57.50;;;;;;5059306;28;20210;-55
2024/04/05 09:31:18;;;;;;;9.00;2.50;;;15.90;57.70;;;;;;5053403;28;20313;-56
2024/04/05 09:33:45;;;;;;;7.27;2.83;;;15.90;57.10;;;;;;5061844;28;20203;-56
2024/04/05 09:36:16;;;;;;;7.13;2.57;;;15.90;57.00;;;;;;5057891;28;20715;-55
2024/04/05 09:38:45;;;;;;;6.57;2.30;;;16.00;56.80;;;;;;5053699;28;20206;-55
2024/04/05 09:41:13;;;;;;;8.13;2.30;;;16.00;56.70;;;;;;5057455;28;20701;-56
2024/04/05 09:43:41;;;;;;;6.70;1.93;;;16.00;56.60;;;;;;5056951;28;20221;-55
2024/04/05 09:46:10;;;;;;;8.33;2.30;;;16.00;56.50;;;;;;5064973;28;20213;-55
2024/04/05 09:48:39;;;;;;;6.90;2.60;;;16.00;56.40;;;;;;5052605;28;20259;-55
2024/04/05 09:51:13;;;;;;;6.30;2.30;;;16.00;56.30;;;;;;5052077;28;20278;-55
2024/04/05 09:53:46;;;;;;;4.70;2.37;;;16.00;56.20;;;;;;5068656;28;20251;-55
2024/04/05 09:56:16;;;;;;;3.47;1.80;;;16.10;56.30;;;;;;5063676;28;20205;-55
2024/04/05 09:58:43;;;;;;;4.57;1.97;;;16.00;56.10;;;;;;5072529;28;20200;-55
2024/04/05 10:01:09;;;;;;;6.47;2.00;;;16.10;56.10;;;;;;5072886;28;20227;-55
2024/04/05 10:03:36;;;;;;;4.13;2.03;;;16.10;56.10;;;;;;5053880;28;20218;-56
2024/04/05 10:06:15;;;;;;;6.63;2.37;;;16.10;56.00;;;;;;5067930;28;20208;-56
2024/04/05 10:08:42;;;;;;;3.43;1.80;;;16.10;56.00;;;;;;5071678;28;20654;-55
2024/04/05 10:11:14;;;;;;;5.47;1.90;;;16.10;56.00;;;;;;5055351;28;20233;-56
2024/04/05 10:13:41;;;;;;;5.67;1.80;;;16.10;56.20;;;;;;5064341;28;20204;-56
2024/04/05 10:16:08;;;;;;;3.70;1.50;;;16.10;56.40;;;;;;5071947;28;20570;-55
2024/04/05 10:18:38;;;;;;;4.83;1.63;;;16.10;56.90;;;;;;5063474;28;20197;-56
2024/04/05 10:21:08;;;;;;;3.77;1.70;;;16.20;57.70;;;;;;5061960;28;20229;-56
2024/04/05 10:23:36;;;;;;;3.47;1.57;;;16.20;57.90;;;;;;5055370;28;20704;-56
2024/04/05 10:26:02;;;;;;;3.13;1.50;;;16.20;58.40;;;;;;5062797;28;20216;-56
2024/04/05 10:28:31;;;;;;;2.97;1.40;;;16.20;58.30;;;;;;5069368;28;20212;-55
2024/04/05 10:31:00;;;;;;;2.23;1.20;;;16.20;58.50;;;;;;5057922;28;20287;-56
2024/04/05 10:33:27;;;;;;;3.50;1.50;;;16.20;58.40;;;;;;5061342;28;20250;-56
2024/04/05 10:35:57;;;;;;;2.97;1.63;;;16.20;58.00;;;;;;5058173;28;20212;-56
2024/04/05 10:38:24;;;;;;;10.23;2.30;;;16.30;57.90;;;;;;5071515;28;20636;-56
2024/04/05 10:40:57;;;;;;;4.20;1.40;;;16.30;57.80;;;;;;5064878;28;20308;-57
2024/04/05 10:43:24;;;;;;;2.57;1.43;;;16.30;57.60;;;;;;5068644;28;20299;-56
2024/04/05 10:45:53;;;;;;;3.47;1.83;;;16.30;58.10;;;;;;5045696;28;20208;-56
2024/04/05 10:48:21;;;;;;;3.20;1.40;;;16.30;59.20;;;;;;5059303;28;20209;-56
2024/04/05 10:50:48;;;;;;;3.27;1.63;;;16.40;59.30;;;;;;5071826;28;20257;-55
2024/04/05 10:53:17;;;;;;;1.73;1.40;;;16.40;59.40;;;;;;5065592;28;21176;-55
2024/04/05 10:55:43;;;;;;;3.50;1.60;;;16.50;59.60;;;;;;5058396;28;20267;-55
2024/04/05 10:58:11;;;;;;;3.37;1.37;;;16.50;59.50;;;;;;5061458;28;20565;-55
2024/04/05 11:00:38;;;;;;;3.83;1.70;;;16.50;59.60;;;;;;5071479;28;20228;-55
2024/04/05 11:03:08;;;;;;;2.60;1.20;;;16.50;59.20;;;;;;5063475;28;20282;-55
2024/04/05 11:05:34;;;;;;;2.40;1.37;;;16.50;58.90;;;;;;5070085;28;20282;-55
2024/04/05 11:08:04;;;;;;;1.93;1.13;;;16.50;58.90;;;;;;5061372;28;20211;-56
2024/04/05 11:10:30;;;;;;;2.77;1.23;;;16.50;58.90;;;;;;5055973;28;20222;-55
2024/04/05 11:12:57;;;;;;;2.77;1.40;;;16.50;58.90;;;;;;5071761;28;20283;-54
2024/04/05 11:15:23;;;;;;;3.27;1.60;;;16.50;58.90;;;;;;5070675;28;20197;-55
2024/04/05 11:18:00;;;;;;;3.10;1.40;;;16.50;58.90;;;;;;5049877;28;20234;-55
2024/04/05 11:20:30;;;;;;;3.90;1.50;;;16.50;59.00;;;;;;5059174;28;20308;-55
2024/04/05 11:22:57;;;;;;;2.10;1.40;;;16.50;59.10;;;;;;5063469;28;20225;-55
2024/04/05 11:25:23;;;;;;;1.90;1.10;;;16.60;59.10;;;;;;5063839;28;20202;-56
2024/04/05 11:27:50;;;;;;;2.10;1.27;;;16.60;59.20;;;;;;5054847;28;20508;-54
2024/04/05 11:30:16;;;;;;;2.03;1.13;;;16.60;59.10;;;;;;5071421;28;20217;-55
2024/04/05 11:32:43;;;;;;;3.07;1.23;;;16.50;59.00;;;;;;5064369;28;20219;-56
2024/04/05 11:35:12;;;;;;;2.33;1.30;;;16.60;59.10;;;;;;5071692;28;20236;-56
2024/04/05 11:37:43;;;;;;;1.97;1.20;;;16.60;59.20;;;;;;5055753;28;20276;-57
2024/04/05 11:40:10;;;;;;;1.27;1.17;;;16.60;59.10;;;;;;5059857;28;20302;-56
2024/04/05 11:42:38;;;;;;;2.03;1.20;;;16.60;59.00;;;;;;5069026;28;20221;-56
2024/04/05 11:45:05;;;;;;;2.30;1.10;;;16.60;59.10;;;;;;5071354;28;20205;-56
2024/04/05 11:47:33;;;;;;;1.40;1.03;;;16.60;59.10;;;;;;5063457;28;20331;-56
2024/04/05 11:49:59;;;;;;;3.20;1.50;;;16.60;59.10;;;;;;5062272;28;20232;-56
2024/04/05 11:52:26;;;;;;;2.90;1.30;;;16.60;59.00;;;;;;5059149;28;20280;-56
2024/04/05 11:54:53;;;;;;;1.90;1.20;;;16.70;59.00;;;;;;5065358;28;20661;-56
2024/04/05 11:57:20;;;;;;;2.40;1.27;;;16.70;58.90;;;;;;5058944;28;20210;-56
2024/04/05 11:59:46;;;;;;;1.90;1.10;;;16.70;58.70;;;;;;5066941;28;20205;-56
2024/04/05 12:02:13;;;;;;;2.00;1.47;;;16.70;58.50;;;;;;5064946;28;20254;-56
2024/04/05 12:04:40;;;;;;;2.27;1.40;;;16.70;58.40;;;;;;5056579;28;20213;-57
2024/04/05 12:07:09;;;;;;;2.80;1.40;;;16.70;58.50;;;;;;5073703;28;20201;-56
2024/04/05 12:09:36;;;;;;;2.00;1.30;;;16.70;58.40;;;;;;5074830;28;20210;-54
2024/04/05 12:12:05;;;;;;;1.57;1.17;;;16.70;58.40;;;;;;5065886;28;20223;-57
2024/04/05 12:14:32;;;;;;;1.73;1.20;;;16.80;59.10;;;;;;5074455;28;20207;-57
2024/04/05 12:16:59;;;;;;;2.00;1.20;;;16.80;58.40;;;;;;5065952;28;20232;-57
2024/04/05 12:19:25;;;;;;;2.97;1.30;;;16.80;58.30;;;;;;5052234;28;20206;-57
2024/04/05 12:21:52;;;;;;;1.97;1.03;;;16.80;58.30;;;;;;5070258;28;20217;-56
2024/04/05 12:24:18;;;;;;;1.83;1.20;;;16.80;58.40;;;;;;5062183;28;20228;-56
2024/04/05 12:26:44;;;;;;;1.63;1.20;;;16.80;58.40;;;;;;5054161;28;20194;-56
2024/04/05 12:29:11;;;;;;;1.33;1.07;;;16.80;58.50;;;;;;5060995;28;20208;-56
2024/04/05 12:31:39;;;;;;;1.87;1.07;;;16.80;58.50;;;;;;5062556;28;20257;-57
2024/04/05 12:34:05;;;;;;;2.00;1.20;;;16.80;58.40;;;;;;5050329;28;20202;-54
2024/04/05 12:36:32;;;;;;;1.77;1.37;;;16.80;58.40;;;;;;5069120;28;20544;-54
2024/04/05 12:39:05;;;;;;;2.17;1.10;;;16.80;58.30;;;;;;5073775;28;20661;-54
2024/04/05 12:41:33;;;;;;;1.90;1.27;;;16.80;58.20;;;;;;5064364;28;20247;-54
2024/04/05 12:43:59;;;;;;;3.37;1.40;;;16.90;58.40;;;;;;5074093;28;20256;-54